Terminal Aerodrome Forecast
Issued by NWS

Home | Current Version | Previous Version | Text Only | Print | Product List | Glossary On
Versions: 1 2 3 4 5 6 7 8 9 10 11 12 13 14 15 16 17
000
FTUS41 KBTV 231300 AAA
TAFSLK
TAF AMD
KSLK 231302Z 2313/2412 22012G20KT P6SM VCSH BKN020 OVC050
      TEMPO 2314/2316 4SM -TSRA BKN040CB
     FM232000 31010KT P6SM SCT035 BKN050
     FM240300 35004KT P6SM SCT025 BKN050=

USA.gov is the U.S. government's official web portal to all federal, state and local government web resources and services.